sensor_id;sensor_type;location;lat;lon;timestamp;P1;durP1;ratioP1;P2;durP2;ratioP2
15449;SDS011;7826;49.784;9.934;2024-01-10T00:01:48;53.37;;;23.87;;
15449;SDS011;7826;49.784;9.934;2024-01-10T00:04:14;53.47;;;24.67;;
15449;SDS011;7826;49.784;9.934;2024-01-10T00:06:42;49.57;;;21.73;;
15449;SDS011;7826;49.784;9.934;2024-01-10T00:09:09;55.60;;;22.80;;
15449;SDS011;7826;49.784;9.934;2024-01-10T00:11:35;50.60;;;23.10;;
15449;SDS011;7826;49.784;9.934;2024-01-10T00:14:01;52.17;;;22.40;;
15449;SDS011;7826;49.784;9.934;2024-01-10T00:16:28;57.13;;;24.23;;
15449;SDS011;7826;49.784;9.934;2024-01-10T00:18:55;52.47;;;25.30;;
15449;SDS011;7826;49.784;9.934;2024-01-10T00:21:21;58.27;;;25.50;;
15449;SDS011;7826;49.784;9.934;2024-01-10T00:23:47;58.87;;;25.03;;
15449;SDS011;7826;49.784;9.934;2024-01-10T00:26:13;51.83;;;23.63;;
15449;SDS011;7826;49.784;9.934;2024-01-10T00:28:39;52.43;;;22.47;;
15449;SDS011;7826;49.784;9.934;2024-01-10T00:31:05;49.67;;;23.40;;
15449;SDS011;7826;49.784;9.934;2024-01-10T00:33:31;55.73;;;23.90;;
15449;SDS011;7826;49.784;9.934;2024-01-10T00:35:57;48.43;;;22.07;;
15449;SDS011;7826;49.784;9.934;2024-01-10T00:38:24;60.53;;;25.47;;
15449;SDS011;7826;49.784;9.934;2024-01-10T00:40:50;53.57;;;22.87;;
15449;SDS011;7826;49.784;9.934;2024-01-10T00:43:16;54.27;;;25.67;;
15449;SDS011;7826;49.784;9.934;2024-01-10T00:45:42;54.60;;;23.93;;
15449;SDS011;7826;49.784;9.934;2024-01-10T00:48:08;57.83;;;24.73;;
15449;SDS011;7826;49.784;9.934;2024-01-10T00:50:34;48.23;;;23.47;;
15449;SDS011;7826;49.784;9.934;2024-01-10T00:53:00;58.60;;;24.43;;
15449;SDS011;7826;49.784;9.934;2024-01-10T00:55:26;60.50;;;25.57;;
15449;SDS011;7826;49.784;9.934;2024-01-10T00:57:52;62.70;;;25.47;;
15449;SDS011;7826;49.784;9.934;2024-01-10T01:00:21;51.00;;;23.30;;
15449;SDS011;7826;49.784;9.934;2024-01-10T01:02:47;57.00;;;25.13;;
15449;SDS011;7826;49.784;9.934;2024-01-10T01:05:14;58.10;;;23.87;;
15449;SDS011;7826;49.784;9.934;2024-01-10T01:07:40;64.87;;;25.77;;
15449;SDS011;7826;49.784;9.934;2024-01-10T01:10:06;54.13;;;24.53;;
15449;SDS011;7826;49.784;9.934;2024-01-10T01:12:34;58.23;;;25.30;;
15449;SDS011;7826;49.784;9.934;2024-01-10T01:15:00;59.70;;;25.70;;
15449;SDS011;7826;49.784;9.934;2024-01-10T01:17:27;61.80;;;25.10;;
15449;SDS011;7826;49.784;9.934;2024-01-10T01:19:53;63.17;;;25.73;;
15449;SDS011;7826;49.784;9.934;2024-01-10T01:22:20;61.23;;;25.87;;
15449;SDS011;7826;49.784;9.934;2024-01-10T01:24:46;55.13;;;25.07;;
15449;SDS011;7826;49.784;9.934;2024-01-10T01:27:12;58.80;;;24.50;;
15449;SDS011;7826;49.784;9.934;2024-01-10T01:29:38;58.83;;;25.07;;
15449;SDS011;7826;49.784;9.934;2024-01-10T01:32:04;60.43;;;25.30;;
15449;SDS011;7826;49.784;9.934;2024-01-10T01:34:30;64.57;;;26.47;;
15449;SDS011;7826;49.784;9.934;2024-01-10T01:36:57;57.83;;;25.73;;
15449;SDS011;7826;49.784;9.934;2024-01-10T01:39:23;64.30;;;25.87;;
15449;SDS011;7826;49.784;9.934;2024-01-10T01:41:49;59.40;;;26.07;;
15449;SDS011;7826;49.784;9.934;2024-01-10T01:44:15;64.83;;;26.13;;
15449;SDS011;7826;49.784;9.934;2024-01-10T01:46:41;54.60;;;25.63;;
15449;SDS011;7826;49.784;9.934;2024-01-10T01:49:09;55.80;;;25.23;;
15449;SDS011;7826;49.784;9.934;2024-01-10T01:51:36;56.67;;;25.03;;
15449;SDS011;7826;49.784;9.934;2024-01-10T01:54:06;59.97;;;26.07;;
15449;SDS011;7826;49.784;9.934;2024-01-10T01:56:36;61.70;;;26.40;;
15449;SDS011;7826;49.784;9.934;2024-01-10T01:59:04;59.13;;;25.60;;
15449;SDS011;7826;49.784;9.934;2024-01-10T02:01:30;60.97;;;25.70;;
15449;SDS011;7826;49.784;9.934;2024-01-10T02:03:57;68.80;;;26.27;;
15449;SDS011;7826;49.784;9.934;2024-01-10T02:06:26;61.10;;;25.53;;
15449;SDS011;7826;49.784;9.934;2024-01-10T02:08:55;55.17;;;25.90;;
15449;SDS011;7826;49.784;9.934;2024-01-10T02:11:23;62.30;;;26.53;;
15449;SDS011;7826;49.784;9.934;2024-01-10T02:13:50;64.10;;;27.27;;
15449;SDS011;7826;49.784;9.934;2024-01-10T02:16:19;61.73;;;25.90;;
15449;SDS011;7826;49.784;9.934;2024-01-10T02:18:48;67.43;;;27.97;;
15449;SDS011;7826;49.784;9.934;2024-01-10T02:21:15;62.97;;;26.57;;
15449;SDS011;7826;49.784;9.934;2024-01-10T02:23:42;70.43;;;25.13;;
15449;SDS011;7826;49.784;9.934;2024-01-10T02:26:08;59.87;;;25.83;;
15449;SDS011;7826;49.784;9.934;2024-01-10T02:28:34;66.47;;;26.57;;
15449;SDS011;7826;49.784;9.934;2024-01-10T02:31:00;56.30;;;27.00;;
15449;SDS011;7826;49.784;9.934;2024-01-10T02:33:27;67.50;;;26.40;;
15449;SDS011;7826;49.784;9.934;2024-01-10T02:35:53;63.40;;;25.70;;
15449;SDS011;7826;49.784;9.934;2024-01-10T02:38:19;63.97;;;26.63;;
15449;SDS011;7826;49.784;9.934;2024-01-10T02:40:49;64.40;;;27.03;;
15449;SDS011;7826;49.784;9.934;2024-01-10T02:43:15;68.90;;;24.97;;
15449;SDS011;7826;49.784;9.934;2024-01-10T02:45:41;62.97;;;24.93;;
15449;SDS011;7826;49.784;9.934;2024-01-10T02:48:08;58.77;;;24.83;;
15449;SDS011;7826;49.784;9.934;2024-01-10T02:50:34;52.43;;;24.83;;
15449;SDS011;7826;49.784;9.934;2024-01-10T02:53:00;62.93;;;25.53;;
15449;SDS011;7826;49.784;9.934;2024-01-10T02:55:26;58.87;;;26.10;;
15449;SDS011;7826;49.784;9.934;2024-01-10T02:57:52;69.57;;;26.57;;
15449;SDS011;7826;49.784;9.934;2024-01-10T03:00:18;59.30;;;26.00;;
15449;SDS011;7826;49.784;9.934;2024-01-10T03:02:45;63.70;;;26.63;;
15449;SDS011;7826;49.784;9.934;2024-01-10T03:05:11;62.07;;;26.40;;
15449;SDS011;7826;49.784;9.934;2024-01-10T03:07:37;65.60;;;26.07;;
15449;SDS011;7826;49.784;9.934;2024-01-10T03:10:03;64.50;;;26.43;;
15449;SDS011;7826;49.784;9.934;2024-01-10T03:12:29;63.33;;;26.13;;
15449;SDS011;7826;49.784;9.934;2024-01-10T03:14:55;56.23;;;25.63;;
15449;SDS011;7826;49.784;9.934;2024-01-10T03:17:21;64.83;;;26.20;;
15449;SDS011;7826;49.784;9.934;2024-01-10T03:19:48;59.67;;;26.07;;
15449;SDS011;7826;49.784;9.934;2024-01-10T03:22:14;64.67;;;27.87;;
15449;SDS011;7826;49.784;9.934;2024-01-10T03:24:40;56.30;;;24.70;;
15449;SDS011;7826;49.784;9.934;2024-01-10T03:27:06;63.17;;;26.43;;
15449;SDS011;7826;49.784;9.934;2024-01-10T03:29:32;65.03;;;26.47;;
15449;SDS011;7826;49.784;9.934;2024-01-10T03:31:58;55.37;;;26.23;;
15449;SDS011;7826;49.784;9.934;2024-01-10T03:34:25;61.83;;;27.17;;
15449;SDS011;7826;49.784;9.934;2024-01-10T03:36:51;60.63;;;26.40;;
15449;SDS011;7826;49.784;9.934;2024-01-10T03:39:17;60.17;;;26.13;;
15449;SDS011;7826;49.784;9.934;2024-01-10T03:41:43;57.73;;;26.07;;
15449;SDS011;7826;49.784;9.934;2024-01-10T03:44:09;61.03;;;25.63;;
15449;SDS011;7826;49.784;9.934;2024-01-10T03:46:35;58.87;;;26.67;;
15449;SDS011;7826;49.784;9.934;2024-01-10T03:49:01;66.37;;;26.90;;
15449;SDS011;7826;49.784;9.934;2024-01-10T03:51:27;56.60;;;24.97;;
15449;SDS011;7826;49.784;9.934;2024-01-10T03:53:54;57.93;;;26.00;;
15449;SDS011;7826;49.784;9.934;2024-01-10T03:56:20;66.20;;;27.93;;
15449;SDS011;7826;49.784;9.934;2024-01-10T03:58:47;62.20;;;26.20;;
15449;SDS011;7826;49.784;9.934;2024-01-10T04:01:15;65.70;;;26.40;;
15449;SDS011;7826;49.784;9.934;2024-01-10T04:03:42;61.30;;;25.37;;
15449;SDS011;7826;49.784;9.934;2024-01-10T04:06:08;60.90;;;26.40;;
15449;SDS011;7826;49.784;9.934;2024-01-10T04:08:34;62.43;;;25.60;;
15449;SDS011;7826;49.784;9.934;2024-01-10T04:11:01;72.97;;;28.57;;
15449;SDS011;7826;49.784;9.934;2024-01-10T04:13:28;65.93;;;26.90;;
15449;SDS011;7826;49.784;9.934;2024-01-10T04:15:54;68.33;;;28.20;;
15449;SDS011;7826;49.784;9.934;2024-01-10T04:18:21;60.53;;;25.33;;
15449;SDS011;7826;49.784;9.934;2024-01-10T04:20:50;65.63;;;25.70;;
15449;SDS011;7826;49.784;9.934;2024-01-10T04:23:16;62.67;;;26.10;;
15449;SDS011;7826;49.784;9.934;2024-01-10T04:25:42;59.03;;;26.20;;
15449;SDS011;7826;49.784;9.934;2024-01-10T04:28:08;57.97;;;24.77;;
15449;SDS011;7826;49.784;9.934;2024-01-10T04:30:34;61.23;;;25.77;;
15449;SDS011;7826;49.784;9.934;2024-01-10T04:33:00;64.63;;;27.73;;
15449;SDS011;7826;49.784;9.934;2024-01-10T04:35:27;58.50;;;25.80;;
15449;SDS011;7826;49.784;9.934;2024-01-10T04:37:53;59.07;;;26.13;;
15449;SDS011;7826;49.784;9.934;2024-01-10T04:40:19;59.20;;;24.20;;
15449;SDS011;7826;49.784;9.934;2024-01-10T04:42:45;64.03;;;26.03;;
15449;SDS011;7826;49.784;9.934;2024-01-10T04:45:12;60.63;;;26.57;;
15449;SDS011;7826;49.784;9.934;2024-01-10T04:47:38;62.37;;;26.30;;
15449;SDS011;7826;49.784;9.934;2024-01-10T04:50:04;65.20;;;25.97;;
15449;SDS011;7826;49.784;9.934;2024-01-10T04:52:30;64.10;;;27.50;;
15449;SDS011;7826;49.784;9.934;2024-01-10T04:54:56;68.47;;;26.57;;
15449;SDS011;7826;49.784;9.934;2024-01-10T04:57:23;60.50;;;27.37;;
15449;SDS011;7826;49.784;9.934;2024-01-10T04:59:49;64.00;;;26.27;;
15449;SDS011;7826;49.784;9.934;2024-01-10T05:02:15;71.23;;;28.27;;
15449;SDS011;7826;49.784;9.934;2024-01-10T05:04:41;69.13;;;28.17;;
15449;SDS011;7826;49.784;9.934;2024-01-10T05:07:07;66.73;;;27.93;;
15449;SDS011;7826;49.784;9.934;2024-01-10T05:09:33;62.37;;;26.70;;
15449;SDS011;7826;49.784;9.934;2024-01-10T05:11:59;66.30;;;27.50;;
15449;SDS011;7826;49.784;9.934;2024-01-10T05:14:26;61.93;;;27.23;;
15449;SDS011;7826;49.784;9.934;2024-01-10T05:16:52;59.87;;;28.00;;
15449;SDS011;7826;49.784;9.934;2024-01-10T05:19:19;67.00;;;26.93;;
15449;SDS011;7826;49.784;9.934;2024-01-10T05:21:45;66.10;;;26.70;;
15449;SDS011;7826;49.784;9.934;2024-01-10T05:24:11;59.40;;;25.93;;
15449;SDS011;7826;49.784;9.934;2024-01-10T05:26:38;57.17;;;26.23;;
15449;SDS011;7826;49.784;9.934;2024-01-10T05:29:04;62.83;;;27.10;;
15449;SDS011;7826;49.784;9.934;2024-01-10T05:31:30;58.93;;;27.13;;
15449;SDS011;7826;49.784;9.934;2024-01-10T05:33:56;70.43;;;27.40;;
15449;SDS011;7826;49.784;9.934;2024-01-10T05:36:22;63.77;;;26.60;;
15449;SDS011;7826;49.784;9.934;2024-01-10T05:38:49;56.73;;;24.60;;
15449;SDS011;7826;49.784;9.934;2024-01-10T05:41:15;60.23;;;27.93;;
15449;SDS011;7826;49.784;9.934;2024-01-10T05:43:42;68.53;;;28.40;;
15449;SDS011;7826;49.784;9.934;2024-01-10T05:46:09;62.30;;;27.47;;
15449;SDS011;7826;49.784;9.934;2024-01-10T05:48:35;63.40;;;26.77;;
15449;SDS011;7826;49.784;9.934;2024-01-10T05:51:02;64.20;;;27.40;;
15449;SDS011;7826;49.784;9.934;2024-01-10T05:53:28;68.47;;;26.83;;
15449;SDS011;7826;49.784;9.934;2024-01-10T05:55:54;63.53;;;25.77;;
15449;SDS011;7826;49.784;9.934;2024-01-10T05:58:21;66.20;;;27.40;;
15449;SDS011;7826;49.784;9.934;2024-01-10T06:00:47;57.33;;;25.63;;
15449;SDS011;7826;49.784;9.934;2024-01-10T06:03:13;58.63;;;25.97;;
15449;SDS011;7826;49.784;9.934;2024-01-10T06:05:39;57.73;;;27.20;;
15449;SDS011;7826;49.784;9.934;2024-01-10T06:08:06;62.37;;;26.43;;
15449;SDS011;7826;49.784;9.934;2024-01-10T06:10:32;62.23;;;24.27;;
15449;SDS011;7826;49.784;9.934;2024-01-10T06:12:58;70.23;;;26.97;;
15449;SDS011;7826;49.784;9.934;2024-01-10T06:15:24;66.97;;;26.90;;
15449;SDS011;7826;49.784;9.934;2024-01-10T06:17:51;62.10;;;27.67;;
15449;SDS011;7826;49.784;9.934;2024-01-10T06:20:17;60.93;;;27.87;;
15449;SDS011;7826;49.784;9.934;2024-01-10T06:22:44;71.77;;;28.87;;
15449;SDS011;7826;49.784;9.934;2024-01-10T06:25:12;61.60;;;25.50;;
15449;SDS011;7826;49.784;9.934;2024-01-10T06:27:38;53.47;;;24.40;;
15449;SDS011;7826;49.784;9.934;2024-01-10T06:30:05;66.03;;;27.23;;
15449;SDS011;7826;49.784;9.934;2024-01-10T06:32:33;62.47;;;26.67;;
15449;SDS011;7826;49.784;9.934;2024-01-10T06:34:59;62.87;;;26.30;;
15449;SDS011;7826;49.784;9.934;2024-01-10T06:37:27;61.17;;;27.00;;
15449;SDS011;7826;49.784;9.934;2024-01-10T06:39:53;72.43;;;28.77;;
15449;SDS011;7826;49.784;9.934;2024-01-10T06:42:20;75.83;;;31.07;;
15449;SDS011;7826;49.784;9.934;2024-01-10T06:44:46;64.07;;;28.27;;
15449;SDS011;7826;49.784;9.934;2024-01-10T06:47:12;64.13;;;29.40;;
15449;SDS011;7826;49.784;9.934;2024-01-10T06:49:40;64.30;;;27.97;;
15449;SDS011;7826;49.784;9.934;2024-01-10T06:52:06;70.80;;;28.77;;
15449;SDS011;7826;49.784;9.934;2024-01-10T06:54:33;60.83;;;25.30;;
15449;SDS011;7826;49.784;9.934;2024-01-10T06:57:00;67.03;;;27.30;;
15449;SDS011;7826;49.784;9.934;2024-01-10T06:59:26;66.60;;;27.40;;
15449;SDS011;7826;49.784;9.934;2024-01-10T07:01:53;58.07;;;26.77;;
15449;SDS011;7826;49.784;9.934;2024-01-10T07:04:22;65.13;;;27.97;;
15449;SDS011;7826;49.784;9.934;2024-01-10T07:06:49;62.77;;;25.70;;
15449;SDS011;7826;49.784;9.934;2024-01-10T07:09:15;62.77;;;26.43;;
15449;SDS011;7826;49.784;9.934;2024-01-10T07:11:48;70.20;;;26.93;;
15449;SDS011;7826;49.784;9.934;2024-01-10T07:14:14;68.67;;;28.07;;
15449;SDS011;7826;49.784;9.934;2024-01-10T07:16:41;68.90;;;27.37;;
15449;SDS011;7826;49.784;9.934;2024-01-10T07:19:09;64.33;;;26.60;;
15449;SDS011;7826;49.784;9.934;2024-01-10T07:21:41;76.70;;;27.23;;
15449;SDS011;7826;49.784;9.934;2024-01-10T07:24:08;66.47;;;27.47;;
15449;SDS011;7826;49.784;9.934;2024-01-10T07:26:35;70.73;;;26.77;;
15449;SDS011;7826;49.784;9.934;2024-01-10T07:29:02;64.07;;;26.70;;
15449;SDS011;7826;49.784;9.934;2024-01-10T07:31:28;69.00;;;26.80;;
15449;SDS011;7826;49.784;9.934;2024-01-10T07:33:58;62.23;;;26.33;;
15449;SDS011;7826;49.784;9.934;2024-01-10T07:36:24;53.93;;;24.87;;
15449;SDS011;7826;49.784;9.934;2024-01-10T07:38:58;60.53;;;25.60;;
15449;SDS011;7826;49.784;9.934;2024-01-10T07:41:24;68.77;;;27.10;;
15449;SDS011;7826;49.784;9.934;2024-01-10T07:43:51;62.57;;;26.87;;
15449;SDS011;7826;49.784;9.934;2024-01-10T07:46:17;67.60;;;27.40;;
15449;SDS011;7826;49.784;9.934;2024-01-10T07:48:43;75.70;;;29.93;;
15449;SDS011;7826;49.784;9.934;2024-01-10T07:51:09;63.70;;;27.67;;
15449;SDS011;7826;49.784;9.934;2024-01-10T07:53:36;68.83;;;27.67;;
15449;SDS011;7826;49.784;9.934;2024-01-10T07:56:02;66.23;;;27.43;;
15449;SDS011;7826;49.784;9.934;2024-01-10T07:58:28;69.43;;;28.80;;
15449;SDS011;7826;49.784;9.934;2024-01-10T08:00:54;69.77;;;28.27;;
15449;SDS011;7826;49.784;9.934;2024-01-10T08:03:20;66.50;;;28.93;;
15449;SDS011;7826;49.784;9.934;2024-01-10T08:05:46;71.07;;;27.13;;
15449;SDS011;7826;49.784;9.934;2024-01-10T08:08:13;68.10;;;27.67;;
15449;SDS011;7826;49.784;9.934;2024-01-10T08:10:39;69.40;;;30.00;;
15449;SDS011;7826;49.784;9.934;2024-01-10T08:13:05;68.07;;;27.40;;
15449;SDS011;7826;49.784;9.934;2024-01-10T08:15:31;68.23;;;30.13;;
15449;SDS011;7826;49.784;9.934;2024-01-10T08:18:00;63.13;;;26.57;;
15449;SDS011;7826;49.784;9.934;2024-01-10T08:20:29;66.40;;;27.53;;
15449;SDS011;7826;49.784;9.934;2024-01-10T08:22:55;57.77;;;27.23;;
15449;SDS011;7826;49.784;9.934;2024-01-10T08:25:22;62.60;;;27.47;;
15449;SDS011;7826;49.784;9.934;2024-01-10T08:27:49;62.27;;;26.20;;
15449;SDS011;7826;49.784;9.934;2024-01-10T08:30:17;63.07;;;26.70;;
15449;SDS011;7826;49.784;9.934;2024-01-10T08:32:43;63.27;;;27.40;;
15449;SDS011;7826;49.784;9.934;2024-01-10T08:35:09;64.37;;;26.40;;
15449;SDS011;7826;49.784;9.934;2024-01-10T08:37:36;65.00;;;28.27;;
15449;SDS011;7826;49.784;9.934;2024-01-10T08:40:03;64.07;;;27.20;;
15449;SDS011;7826;49.784;9.934;2024-01-10T08:42:35;64.27;;;26.37;;
15449;SDS011;7826;49.784;9.934;2024-01-10T08:45:01;62.83;;;26.27;;
15449;SDS011;7826;49.784;9.934;2024-01-10T08:47:27;65.40;;;27.17;;
15449;SDS011;7826;49.784;9.934;2024-01-10T08:49:56;71.83;;;29.10;;
15449;SDS011;7826;49.784;9.934;2024-01-10T08:52:23;69.70;;;27.97;;
15449;SDS011;7826;49.784;9.934;2024-01-10T08:54:49;63.27;;;27.90;;
15449;SDS011;7826;49.784;9.934;2024-01-10T08:57:15;65.57;;;27.67;;
15449;SDS011;7826;49.784;9.934;2024-01-10T08:59:42;60.97;;;26.03;;
15449;SDS011;7826;49.784;9.934;2024-01-10T09:02:08;66.10;;;27.53;;
15449;SDS011;7826;49.784;9.934;2024-01-10T09:04:34;57.20;;;24.90;;
15449;SDS011;7826;49.784;9.934;2024-01-10T09:07:00;61.13;;;27.23;;
15449;SDS011;7826;49.784;9.934;2024-01-10T09:09:26;62.30;;;26.57;;
15449;SDS011;7826;49.784;9.934;2024-01-10T09:11:53;58.33;;;25.43;;
15449;SDS011;7826;49.784;9.934;2024-01-10T09:14:19;53.10;;;26.83;;
15449;SDS011;7826;49.784;9.934;2024-01-10T09:16:46;63.63;;;25.73;;
15449;SDS011;7826;49.784;9.934;2024-01-10T09:19:12;60.73;;;26.07;;
15449;SDS011;7826;49.784;9.934;2024-01-10T09:21:38;55.40;;;25.00;;
15449;SDS011;7826;49.784;9.934;2024-01-10T09:24:04;57.33;;;24.60;;
15449;SDS011;7826;49.784;9.934;2024-01-10T09:26:34;56.53;;;25.53;;
15449;SDS011;7826;49.784;9.934;2024-01-10T09:29:01;62.10;;;26.23;;
15449;SDS011;7826;49.784;9.934;2024-01-10T09:31:27;58.67;;;26.33;;
15449;SDS011;7826;49.784;9.934;2024-01-10T09:33:53;54.73;;;26.60;;
15449;SDS011;7826;49.784;9.934;2024-01-10T09:36:19;53.47;;;26.17;;
15449;SDS011;7826;49.784;9.934;2024-01-10T09:38:45;52.30;;;27.53;;
15449;SDS011;7826;49.784;9.934;2024-01-10T09:41:11;56.07;;;27.10;;
15449;SDS011;7826;49.784;9.934;2024-01-10T09:43:38;53.57;;;28.53;;
15449;SDS011;7826;49.784;9.934;2024-01-10T09:46:05;57.40;;;29.00;;
15449;SDS011;7826;49.784;9.934;2024-01-10T09:48:33;50.07;;;28.03;;
15449;SDS011;7826;49.784;9.934;2024-01-10T09:50:59;53.63;;;28.20;;
15449;SDS011;7826;49.784;9.934;2024-01-10T09:53:26;56.03;;;29.13;;
15449;SDS011;7826;49.784;9.934;2024-01-10T09:55:53;49.07;;;26.83;;
15449;SDS011;7826;49.784;9.934;2024-01-10T09:58:23;54.97;;;27.43;;
15449;SDS011;7826;49.784;9.934;2024-01-10T10:00:52;57.17;;;28.63;;
15449;SDS011;7826;49.784;9.934;2024-01-10T10:03:18;52.60;;;27.30;;
15449;SDS011;7826;49.784;9.934;2024-01-10T10:05:45;53.80;;;26.80;;
15449;SDS011;7826;49.784;9.934;2024-01-10T10:08:12;51.70;;;26.53;;
15449;SDS011;7826;49.784;9.934;2024-01-10T10:10:41;51.33;;;25.67;;
15449;SDS011;7826;49.784;9.934;2024-01-10T10:13:11;50.00;;;24.67;;
15449;SDS011;7826;49.784;9.934;2024-01-10T10:16:02;52.47;;;25.37;;
15449;SDS011;7826;49.784;9.934;2024-01-10T10:18:29;54.00;;;23.27;;
15449;SDS011;7826;49.784;9.934;2024-01-10T10:21:13;52.20;;;24.40;;
15449;SDS011;7826;49.784;9.934;2024-01-10T10:23:40;50.50;;;24.07;;
15449;SDS011;7826;49.784;9.934;2024-01-10T10:28:50;50.80;;;23.43;;
15449;SDS011;7826;49.784;9.934;2024-01-10T10:31:17;44.67;;;23.47;;
15449;SDS011;7826;49.784;9.934;2024-01-10T10:33:45;52.87;;;24.13;;
15449;SDS011;7826;49.784;9.934;2024-01-10T10:36:14;50.17;;;23.70;;
15449;SDS011;7826;49.784;9.934;2024-01-10T10:38:40;52.63;;;22.53;;
15449;SDS011;7826;49.784;9.934;2024-01-10T10:41:06;44.70;;;21.27;;
15449;SDS011;7826;49.784;9.934;2024-01-10T10:43:36;48.40;;;22.60;;
15449;SDS011;7826;49.784;9.934;2024-01-10T10:46:04;45.30;;;22.60;;
15449;SDS011;7826;49.784;9.934;2024-01-10T10:48:32;44.77;;;22.70;;
15449;SDS011;7826;49.784;9.934;2024-01-10T10:53:35;46.93;;;22.40;;
15449;SDS011;7826;49.784;9.934;2024-01-10T10:56:03;51.20;;;21.83;;
15449;SDS011;7826;49.784;9.934;2024-01-10T10:58:41;47.20;;;22.33;;
15449;SDS011;7826;49.784;9.934;2024-01-10T11:01:11;47.17;;;21.87;;
15449;SDS011;7826;49.784;9.934;2024-01-10T11:03:39;53.00;;;23.00;;
15449;SDS011;7826;49.784;9.934;2024-01-10T11:06:06;42.33;;;22.10;;
15449;SDS011;7826;49.784;9.934;2024-01-10T11:08:36;43.30;;;20.80;;
15449;SDS011;7826;49.784;9.934;2024-01-10T11:25:04;49.07;;;20.57;;
15449;SDS011;7826;49.784;9.934;2024-01-10T11:27:31;45.17;;;21.67;;
15449;SDS011;7826;49.784;9.934;2024-01-10T11:29:57;39.40;;;19.67;;
15449;SDS011;7826;49.784;9.934;2024-01-10T11:32:25;43.20;;;19.97;;
15449;SDS011;7826;49.784;9.934;2024-01-10T11:37:19;41.07;;;21.40;;
15449;SDS011;7826;49.784;9.934;2024-01-10T11:39:45;35.83;;;19.77;;
15449;SDS011;7826;49.784;9.934;2024-01-10T11:42:11;41.50;;;21.27;;
15449;SDS011;7826;49.784;9.934;2024-01-10T11:44:50;34.50;;;21.07;;
15449;SDS011;7826;49.784;9.934;2024-01-10T11:47:17;34.77;;;20.87;;
15449;SDS011;7826;49.784;9.934;2024-01-10T11:49:57;38.40;;;23.70;;
15449;SDS011;7826;49.784;9.934;2024-01-10T11:52:31;42.00;;;23.70;;
15449;SDS011;7826;49.784;9.934;2024-01-10T11:54:59;37.50;;;22.00;;
15449;SDS011;7826;49.784;9.934;2024-01-10T11:57:27;39.70;;;23.20;;
15449;SDS011;7826;49.784;9.934;2024-01-10T11:59:54;39.07;;;23.67;;
15449;SDS011;7826;49.784;9.934;2024-01-10T12:02:22;38.40;;;22.17;;
15449;SDS011;7826;49.784;9.934;2024-01-10T12:04:52;38.07;;;23.77;;
15449;SDS011;7826;49.784;9.934;2024-01-10T12:07:19;35.63;;;22.77;;
15449;SDS011;7826;49.784;9.934;2024-01-10T12:09:46;37.73;;;23.00;;
15449;SDS011;7826;49.784;9.934;2024-01-10T12:12:13;42.23;;;23.67;;
15449;SDS011;7826;49.784;9.934;2024-01-10T12:14:40;35.13;;;22.57;;
15449;SDS011;7826;49.784;9.934;2024-01-10T12:17:07;40.63;;;24.30;;
15449;SDS011;7826;49.784;9.934;2024-01-10T12:19:34;35.77;;;22.60;;
15449;SDS011;7826;49.784;9.934;2024-01-10T12:22:03;37.10;;;22.73;;
15449;SDS011;7826;49.784;9.934;2024-01-10T12:24:30;36.67;;;22.83;;
15449;SDS011;7826;49.784;9.934;2024-01-10T12:26:57;37.43;;;22.63;;
15449;SDS011;7826;49.784;9.934;2024-01-10T12:29:23;32.53;;;20.53;;
15449;SDS011;7826;49.784;9.934;2024-01-10T12:31:51;33.07;;;20.87;;
15449;SDS011;7826;49.784;9.934;2024-01-10T12:34:17;35.47;;;20.40;;
15449;SDS011;7826;49.784;9.934;2024-01-10T12:36:43;31.47;;;19.73;;
15449;SDS011;7826;49.784;9.934;2024-01-10T12:39:10;33.27;;;19.87;;
15449;SDS011;7826;49.784;9.934;2024-01-10T12:41:37;34.27;;;19.47;;
15449;SDS011;7826;49.784;9.934;2024-01-10T12:44:05;31.00;;;18.87;;
15449;SDS011;7826;49.784;9.934;2024-01-10T12:46:32;34.93;;;18.80;;
15449;SDS011;7826;49.784;9.934;2024-01-10T12:49:08;31.50;;;17.90;;
15449;SDS011;7826;49.784;9.934;2024-01-10T12:51:34;33.67;;;17.80;;
15449;SDS011;7826;49.784;9.934;2024-01-10T12:54:04;29.83;;;16.83;;
15449;SDS011;7826;49.784;9.934;2024-01-10T12:56:30;32.30;;;16.83;;
15449;SDS011;7826;49.784;9.934;2024-01-10T12:58:56;32.53;;;17.80;;
15449;SDS011;7826;49.784;9.934;2024-01-10T13:01:24;31.33;;;17.27;;
15449;SDS011;7826;49.784;9.934;2024-01-10T13:03:50;34.80;;;18.17;;
15449;SDS011;7826;49.784;9.934;2024-01-10T13:06:18;35.47;;;18.53;;
15449;SDS011;7826;49.784;9.934;2024-01-10T13:08:45;35.97;;;18.43;;
15449;SDS011;7826;49.784;9.934;2024-01-10T13:11:11;39.60;;;20.30;;
15449;SDS011;7826;49.784;9.934;2024-01-10T13:13:39;36.23;;;17.33;;
15449;SDS011;7826;49.784;9.934;2024-01-10T13:16:06;35.10;;;18.97;;
15449;SDS011;7826;49.784;9.934;2024-01-10T13:18:36;36.33;;;18.83;;
15449;SDS011;7826;49.784;9.934;2024-01-10T13:21:03;38.30;;;20.30;;
15449;SDS011;7826;49.784;9.934;2024-01-10T13:23:29;34.40;;;17.87;;
15449;SDS011;7826;49.784;9.934;2024-01-10T13:25:56;36.57;;;18.60;;
15449;SDS011;7826;49.784;9.934;2024-01-10T13:28:22;35.97;;;18.57;;
15449;SDS011;7826;49.784;9.934;2024-01-10T13:30:48;33.17;;;18.03;;
15449;SDS011;7826;49.784;9.934;2024-01-10T13:33:16;38.83;;;19.60;;
15449;SDS011;7826;49.784;9.934;2024-01-10T13:35:44;33.37;;;18.20;;
15449;SDS011;7826;49.784;9.934;2024-01-10T13:38:10;37.63;;;17.73;;
15449;SDS011;7826;49.784;9.934;2024-01-10T13:40:36;36.60;;;18.90;;
15449;SDS011;7826;49.784;9.934;2024-01-10T13:43:04;48.47;;;18.43;;
15449;SDS011;7826;49.784;9.934;2024-01-10T13:45:31;39.07;;;18.67;;
15449;SDS011;7826;49.784;9.934;2024-01-10T13:47:57;32.90;;;18.30;;
15449;SDS011;7826;49.784;9.934;2024-01-10T13:50:26;33.17;;;18.63;;
15449;SDS011;7826;49.784;9.934;2024-01-10T13:52:52;35.83;;;19.43;;
15449;SDS011;7826;49.784;9.934;2024-01-10T13:55:19;38.07;;;19.27;;
15449;SDS011;7826;49.784;9.934;2024-01-10T13:57:46;33.37;;;19.07;;
15449;SDS011;7826;49.784;9.934;2024-01-10T14:00:12;33.30;;;19.00;;
15449;SDS011;7826;49.784;9.934;2024-01-10T14:02:40;30.97;;;18.80;;
15449;SDS011;7826;49.784;9.934;2024-01-10T14:05:09;35.70;;;19.73;;
15449;SDS011;7826;49.784;9.934;2024-01-10T14:07:36;35.23;;;18.17;;
15449;SDS011;7826;49.784;9.934;2024-01-10T14:10:03;36.90;;;19.33;;
15449;SDS011;7826;49.784;9.934;2024-01-10T14:12:30;33.53;;;19.37;;
15449;SDS011;7826;49.784;9.934;2024-01-10T14:14:56;31.50;;;18.87;;
15449;SDS011;7826;49.784;9.934;2024-01-10T14:17:23;38.47;;;20.53;;
15449;SDS011;7826;49.784;9.934;2024-01-10T14:19:53;35.43;;;20.23;;
15449;SDS011;7826;49.784;9.934;2024-01-10T14:22:19;39.77;;;18.77;;
15449;SDS011;7826;49.784;9.934;2024-01-10T14:24:46;32.87;;;19.20;;
15449;SDS011;7826;49.784;9.934;2024-01-10T14:27:12;32.93;;;18.93;;
15449;SDS011;7826;49.784;9.934;2024-01-10T14:29:38;32.73;;;18.43;;
15449;SDS011;7826;49.784;9.934;2024-01-10T14:32:05;35.57;;;19.63;;
15449;SDS011;7826;49.784;9.934;2024-01-10T14:34:31;34.77;;;19.30;;
15449;SDS011;7826;49.784;9.934;2024-01-10T14:36:57;37.20;;;18.70;;
15449;SDS011;7826;49.784;9.934;2024-01-10T14:39:23;31.93;;;18.43;;
15449;SDS011;7826;49.784;9.934;2024-01-10T14:41:49;34.87;;;18.37;;
15449;SDS011;7826;49.784;9.934;2024-01-10T14:44:16;42.17;;;19.23;;
15449;SDS011;7826;49.784;9.934;2024-01-10T14:46:42;34.27;;;18.27;;
15449;SDS011;7826;49.784;9.934;2024-01-10T14:49:08;36.43;;;18.07;;
15449;SDS011;7826;49.784;9.934;2024-01-10T14:51:34;31.13;;;16.57;;
15449;SDS011;7826;49.784;9.934;2024-01-10T14:54:01;32.20;;;18.27;;